Salekhard, Russia
Current Conditions -  °F | °C
As of 12:00 AM on Saturday 29 Nov 2014 (Local Time) from USHH Reporting Station
Overcast Overcast  
Wind Chill: -26°   Ceiling: 8000
Heat Index: -11°   Visibility: 6mi
Dew Point: -17°   Wind: 7mph
Humidity: 77%   Direction: 180°S
Pressure: 30.36"   Gusts: NA
Location:  66.53°N, 66.6°E
Report Text: USHH 281900Z 18003MPS 9999 SCT013 OVC080 M24/M27 Q1028 NOSIGRMK QFE767 24////60
Loading
Personal Weather Stations






























Interactive Weather Map New forecast layout! Learn more

10-Day Weather Forecast

Advertisements
Track Severe Weather on mobile